Map

Track Data

SID SEASON NUMBER BASIN SUBBASIN NAME ISO_TIME NATURE LAT LON WMO_WIND WMO_PRES WMO_AGENCY TRACK_TYPE DIST2LAND LANDFALL IFLAG USA_AGENCY USA_ATCF_ID USA_LAT USA_LON USA_RECORD USA_STATUS USA_WIND USA_PRES USA_SSHS USA_R34_NE USA_R34_SE USA_R34_SW USA_R34_NW USA_R50_NE USA_R50_SE USA_R50_SW USA_R50_NW USA_R64_NE USA_R64_SE USA_R64_SW USA_R64_NW USA_POCI USA_ROCI USA_RMW USA_EYE TOKYO_LAT TOKYO_LON TOKYO_GRADE TOKYO_WIND TOKYO_PRES TOKYO_R50_DIR TOKYO_R50_LONG TOKYO_R50_SHORT TOKYO_R30_DIR TOKYO_R30_LONG TOKYO_R30_SHORT TOKYO_LAND CMA_LAT CMA_LON CMA_CAT CMA_WIND CMA_PRES HKO_LAT HKO_LON HKO_CAT HKO_WIND HKO_PRES NEWDELHI_LAT NEWDELHI_LON NEWDELHI_GRADE NEWDELHI_WIND NEWDELHI_PRES NEWDELHI_CI NEWDELHI_DP NEWDELHI_POCI REUNION_LAT REUNION_LON REUNION_TYPE REUNION_WIND REUNION_PRES REUNION_TNUM REUNION_CI REUNION_RMW REUNION_R34_NE REUNION_R34_SE REUNION_R34_SW REUNION_R34_NW REUNION_R50_NE REUNION_R50_SE REUNION_R50_SW REUNION_R50_NW REUNION_R64_NE REUNION_R64_SE REUNION_R64_SW REUNION_R64_NW BOM_LAT BOM_LON BOM_TYPE BOM_WIND BOM_PRES BOM_TNUM BOM_CI BOM_RMW BOM_R34_NE BOM_R34_SE BOM_R34_SW BOM_R34_NW BOM_R50_NE BOM_R50_SE BOM_R50_SW BOM_R50_NW BOM_R64_NE BOM_R64_SE BOM_R64_SW BOM_R64_NW BOM_ROCI BOM_POCI BOM_EYE BOM_POS_METHOD BOM_PRES_METHOD NADI_LAT NADI_LON NADI_CAT NADI_WIND NADI_PRES WELLINGTON_LAT WELLINGTON_LON WELLINGTON_WIND WELLINGTON_PRES DS824_LAT DS824_LON DS824_STAGE DS824_WIND DS824_PRES TD9636_LAT TD9636_LON TD9636_STAGE TD9636_WIND TD9636_PRES TD9635_LAT TD9635_LON TD9635_WIND TD9635_PRES TD9635_ROCI NEUMANN_LAT NEUMANN_LON NEUMANN_CLASS NEUMANN_WIND NEUMANN_PRES MLC_LAT MLC_LON MLC_CLASS MLC_WIND MLC_PRES USA_GUST BOM_GUST BOM_GUST_PER REUNION_GUST REUNION_GUST_PER USA_SEAHGT USA_SEARAD_NE USA_SEARAD_SE USA_SEARAD_SW USA_SEARAD_NW STORM_SPEED STORM_DIR
1900210N19088 1900 13 NI BB NOT_NAMED 1900-07-29 00:00:00 TS 18.6000 88.4000 main 260 253 _________O____ -1 18.6000 88.4000 TC 34 1 264
1900210N19088 1900 13 NI BB NOT_NAMED 1900-07-29 03:00:00 TS 18.5933 88.3267 main 253 245 _________PO___ -1 18.5900 88.2900 TC 36 18.6000 88.4000 2 1 274
1900210N19088 1900 13 NI BB NOT_NAMED 1900-07-29 06:00:00 TS 18.6094 88.2438 main 245 245 _________OP___ -1 18.6000 88.2000 TC 39 18.6235 88.3094 2 2 290
1900210N19088 1900 13 NI BB NOT_NAMED 1900-07-29 09:00:00 TS 18.6447 88.1779 main 245 230 _________PP___ -1 18.6425 88.1425 TC 42 18.6476 88.2251 2 1 304
1900210N19088 1900 13 NI BB NOT_NAMED 1900-07-29 12:00:00 TS 18.6864 88.1266 main 230 230 _________OP___ -1 18.7000 88.1000 TC 45 18.6729 88.1532 2 1 310
1900210N19088 1900 13 NI BB NOT_NAMED 1900-07-29 15:00:00 TS 18.7250 88.0750 main 230 214 _________PO___ -1 18.7500 88.0500 TC 45 18.7000 88.1000 3 1 312
1900210N19088 1900 13 NI BB NOT_NAMED 1900-07-29 18:00:00 TS 18.7653 88.0335 main 214 214 _________OP___ -1 18.8000 88.0000 TC 45 18.7305 88.0671 3 1 318
1900210N19088 1900 13 NI BB NOT_NAMED 1900-07-29 21:00:00 TS 18.8024 88.0049 main 214 199 _________PP___ -1 18.8350 87.9724 TC 45 18.7698 88.0373 3 1 318
1900210N19088 1900 13 NI BB NOT_NAMED 1900-07-30 00:00:00 TS 18.8621 87.9444 main 199 184 _________OP___ -1 18.9000 87.9000 TC 45 18.8242 87.9889 3 2 313
1900210N19088 1900 13 NI BB NOT_NAMED 1900-07-30 03:00:00 TS 18.9713 87.8113 main 184 161 _________PO___ -1 19.0425 87.7226 TC 45 18.9000 87.9000 3 4 308
1900210N19088 1900 13 NI BB NOT_NAMED 1900-07-30 06:00:00 TS 19.1059 87.6176 main 161 137 _________OP___ -1 19.2000 87.5000 TC 45 19.0117 87.7352 3 5 304
1900210N19088 1900 13 NI BB NOT_NAMED 1900-07-30 09:00:00 TS 19.2289 87.4114 main 137 114 _________PP___ -1 19.3150 87.2925 TC 45 19.1427 87.5303 3 5 301
1900210N19088 1900 13 NI BB NOT_NAMED 1900-07-30 12:00:00 TS 19.3387 87.2051 main 114 91 _________OP___ -1 19.4000 87.1000 TC 45 19.2773 87.3102 3 4 298
1900210N19088 1900 13 NI BB NOT_NAMED 1900-07-30 15:00:00 TS 19.4250 87.0212 main 91 76 _________PO___ -1 19.4500 86.9424 TC 45 19.4000 87.1000 3 4 295
1900210N19088 1900 13 NI BB NOT_NAMED 1900-07-30 18:00:00 TS 19.4906 86.8657 main 76 54 _________OP___ -1 19.5000 86.8000 TC 45 19.4812 86.9314 3 3 297
1900210N19088 1900 13 NI BB NOT_NAMED 1900-07-30 21:00:00 TS 19.5712 86.7136 main 54 39 _________PP___ -1 19.5925 86.6500 TC 45 19.5499 86.7773 3 3 301
1900210N19088 1900 13 NI BB NOT_NAMED 1900-07-31 00:00:00 TS 19.6593 86.5673 main 39 33 _________OP___ -1 19.7000 86.5000 TC 45 19.6187 86.6345 3 3 302
1900210N19088 1900 13 NI BB NOT_NAMED 1900-07-31 03:00:00 TS 19.7463 86.4212 main 33 11 _________PO___ -1 19.7925 86.3425 TC 41 19.7000 86.5000 3 3 307
1900210N19088 1900 13 NI BB NOT_NAMED 1900-07-31 06:00:00 TS 19.8573 86.2859 main 11 0 _________OP___ -1 19.9000 86.2000 TC 37 19.8146 86.3719 3 3 317
1900210N19088 1900 13 NI BB NOT_NAMED 1900-07-31 09:00:00 TS 19.9962 86.1750 main 0 0 _________PP___ -1 20.0500 86.1000 TC 33 19.9424 86.2500 3 4 323
1900210N19088 1900 13 NI BB NOT_NAMED 1900-07-31 12:00:00 TS 20.1370 86.0640 main 0 0 _________OP___ -1 20.2000 86.0000 TC 30 20.0740 86.1281 3 3 318
1900210N19088 1900 13 NI BB NOT_NAMED 1900-07-31 15:00:00 TS 20.2538 85.9287 main 0 0 _________PO___ -1 20.3075 85.8575 TC 30 20.2000 86.0000 1 3 309
1900210N19088 1900 13 NI BB NOT_NAMED 1900-07-31 18:00:00 TS 20.3268 85.8124 main 0 0 _________OP___ -1 20.4000 85.7000 TC 30 20.2536 85.9248 1 2 304
1900210N19088 1900 13 NI BB NOT_NAMED 1900-07-31 21:00:00 TS 20.3817 85.7247 main 0 0 _________PP___ -1 20.4546 85.6169 TC 30 20.3087 85.8325 1 3 305
1900210N19088 1900 13 NI BB NOT_NAMED 1900-08-01 00:00:00 TS 20.5047 85.5370 main 0 0 _________OP___ -1 20.6000 85.4000 TC 30 20.4095 85.6741 1 7 305
1900210N19088 1900 13 NI BB NOT_NAMED 1900-08-01 03:00:00 TS 20.7740 85.1302 main 0 0 _________PO___ -1 20.9479 84.8604 TC 30 20.6000 85.4000 1 11 306
1900210N19088 1900 13 NI BB NOT_NAMED 1900-08-01 06:00:00 TS 21.1683 84.5723 main 0 0 _________OP___ -1 21.4000 84.2000 TC 30 20.9366 84.9446 1 13 308
1900210N19088 1900 13 NI BB NOT_NAMED 1900-08-01 09:00:00 TS 21.6056 84.0071 main 0 0 _________PP___ -1 21.8497 83.6423 TC 30 21.3614 84.3720 1 14 310
1900210N19088 1900 13 NI BB NOT_NAMED 1900-08-01 12:00:00 TS 22.0651 83.4190 main 0 0 _________OP___ -1 22.3000 83.1000 TC 30 21.8303 83.7381 1 14 309
1900210N19088 1900 13 NI BB NOT_NAMED 1900-08-01 15:00:00 TS 22.5037 82.8248 main 0 0 _________PO___ -1 22.7073 82.5496 TC 30 22.3000 83.1000 1 13 308
1900210N19088 1900 13 NI BB NOT_NAMED 1900-08-01 18:00:00 TS 22.8925 82.2880 main 0 0 _________OP___ -1 23.1000 82.0000 TC 30 22.7368 82.5039 1 13 308
1900210N19088 1900 13 NI BB NOT_NAMED 1900-08-01 21:00:00 TS 23.2846 81.7491 main 0 0 _________PP___ -1 23.4979 81.4507 TC 30 23.1424 81.9480 1 12 308
1900210N19088 1900 13 NI BB NOT_NAMED 1900-08-02 00:00:00 TS 23.6513 81.2455 main 0 0 _________OP___ -1 23.9000 80.9000 TC 30 23.5269 81.4182 1 10 308
1900210N19088 1900 13 NI BB NOT_NAMED 1900-08-02 03:00:00 NR 23.9000 80.9000 main 0 __________O___ -1 TC 23.9000 80.9000 1 8 308

About IBTrACS Database

This database is a web-friendly format of International Best Track Archive for Climate Stewardship (IBTrACS), a global best track data archive curated by NOAA dating back to 1842.

Updated: 2021-12-03